Gilmore City, Iowa
Current Conditions -  °F | °C
As of 2:55 PM on Thursday 18 Dec 2014 (Local Time) from KFOD Reporting Station
Overcast Overcast  
Wind Chill: 27°   Ceiling: 4900
Heat Index: 27°   Visibility: 10mi
Dew Point: 18°   Wind: 0mph
Humidity: 69%   Direction: NA
Pressure: 30.23"   Gusts: NA
Location:  42.73°N, 94.44°W
Report Text: KFOD 182055Z AUTO 00000KT 10SM OVC049 M03/M08 A3023 RMK AO1 57010
Loading
Personal Weather Stations






























Interactive Weather Map New forecast layout! Learn more

10-Day Weather Forecast

Advertisements
Track Severe Weather on mobile